sensor_id;sensor_type;location;lat;lon;timestamp;P1;durP1;ratioP1;P2;durP2;ratioP2
11996;SDS011;6058;48.704;9.474;2023-05-24T00:01:23;2.10;;;1.90;;
11996;SDS011;6058;48.704;9.474;2023-05-24T00:03:51;2.83;;;2.40;;
11996;SDS011;6058;48.704;9.474;2023-05-24T00:06:18;2.40;;;2.00;;
11996;SDS011;6058;48.704;9.474;2023-05-24T00:08:45;3.60;;;2.27;;
11996;SDS011;6058;48.704;9.474;2023-05-24T00:11:12;3.17;;;2.10;;
11996;SDS011;6058;48.704;9.474;2023-05-24T00:13:41;6.03;;;2.07;;
11996;SDS011;6058;48.704;9.474;2023-05-24T00:16:08;2.43;;;1.97;;
11996;SDS011;6058;48.704;9.474;2023-05-24T00:18:35;2.50;;;1.80;;
11996;SDS011;6058;48.704;9.474;2023-05-24T00:21:05;3.93;;;1.93;;
11996;SDS011;6058;48.704;9.474;2023-05-24T00:23:32;4.77;;;1.90;;
11996;SDS011;6058;48.704;9.474;2023-05-24T00:26:01;3.80;;;2.10;;
11996;SDS011;6058;48.704;9.474;2023-05-24T00:28:28;2.20;;;1.60;;
11996;SDS011;6058;48.704;9.474;2023-05-24T00:30:57;2.50;;;1.90;;
11996;SDS011;6058;48.704;9.474;2023-05-24T00:33:24;2.57;;;1.87;;
11996;SDS011;6058;48.704;9.474;2023-05-24T00:35:52;2.73;;;1.67;;
11996;SDS011;6058;48.704;9.474;2023-05-24T00:38:21;2.97;;;1.80;;
11996;SDS011;6058;48.704;9.474;2023-05-24T00:40:48;2.30;;;2.00;;
11996;SDS011;6058;48.704;9.474;2023-05-24T00:43:15;2.43;;;1.57;;
11996;SDS011;6058;48.704;9.474;2023-05-24T00:45:43;2.40;;;2.03;;
11996;SDS011;6058;48.704;9.474;2023-05-24T00:48:11;2.73;;;2.00;;
11996;SDS011;6058;48.704;9.474;2023-05-24T00:50:39;2.97;;;1.87;;
11996;SDS011;6058;48.704;9.474;2023-05-24T00:53:07;3.60;;;1.80;;
11996;SDS011;6058;48.704;9.474;2023-05-24T00:55:35;3.40;;;1.57;;
11996;SDS011;6058;48.704;9.474;2023-05-24T00:58:02;2.10;;;1.87;;
11996;SDS011;6058;48.704;9.474;2023-05-24T01:00:29;3.27;;;1.87;;
11996;SDS011;6058;48.704;9.474;2023-05-24T01:02:57;2.70;;;2.17;;
11996;SDS011;6058;48.704;9.474;2023-05-24T01:05:26;3.40;;;2.03;;
11996;SDS011;6058;48.704;9.474;2023-05-24T01:07:56;3.23;;;1.73;;
11996;SDS011;6058;48.704;9.474;2023-05-24T01:10:30;3.70;;;1.90;;
11996;SDS011;6058;48.704;9.474;2023-05-24T01:12:58;3.17;;;2.10;;
11996;SDS011;6058;48.704;9.474;2023-05-24T01:15:30;4.83;;;1.90;;
11996;SDS011;6058;48.704;9.474;2023-05-24T01:18:01;3.53;;;2.10;;
11996;SDS011;6058;48.704;9.474;2023-05-24T01:20:33;2.63;;;1.90;;
11996;SDS011;6058;48.704;9.474;2023-05-24T01:25:59;1.73;;;1.63;;
11996;SDS011;6058;48.704;9.474;2023-05-24T01:28:30;3.40;;;1.97;;
11996;SDS011;6058;48.704;9.474;2023-05-24T01:30:59;4.13;;;2.00;;
11996;SDS011;6058;48.704;9.474;2023-05-24T01:33:26;2.90;;;1.77;;
11996;SDS011;6058;48.704;9.474;2023-05-24T01:35:53;3.43;;;2.37;;
11996;SDS011;6058;48.704;9.474;2023-05-24T01:38:21;3.07;;;2.43;;
11996;SDS011;6058;48.704;9.474;2023-05-24T01:40:49;5.93;;;2.20;;
11996;SDS011;6058;48.704;9.474;2023-05-24T01:43:21;3.97;;;1.90;;
11996;SDS011;6058;48.704;9.474;2023-05-24T01:45:55;2.00;;;1.90;;
11996;SDS011;6058;48.704;9.474;2023-05-24T01:48:26;2.17;;;1.90;;
11996;SDS011;6058;48.704;9.474;2023-05-24T01:50:56;2.77;;;1.70;;
11996;SDS011;6058;48.704;9.474;2023-05-24T01:53:25;2.67;;;1.67;;
11996;SDS011;6058;48.704;9.474;2023-05-24T01:55:53;4.47;;;2.00;;
11996;SDS011;6058;48.704;9.474;2023-05-24T01:58:21;2.50;;;1.80;;
11996;SDS011;6058;48.704;9.474;2023-05-24T02:00:48;4.40;;;1.90;;
11996;SDS011;6058;48.704;9.474;2023-05-24T02:03:17;3.00;;;1.90;;
11996;SDS011;6058;48.704;9.474;2023-05-24T02:05:45;3.53;;;2.23;;
11996;SDS011;6058;48.704;9.474;2023-05-24T02:08:12;4.40;;;2.30;;
11996;SDS011;6058;48.704;9.474;2023-05-24T02:10:39;6.27;;;1.97;;
11996;SDS011;6058;48.704;9.474;2023-05-24T02:13:06;2.90;;;1.80;;
11996;SDS011;6058;48.704;9.474;2023-05-24T02:15:34;3.00;;;2.00;;
11996;SDS011;6058;48.704;9.474;2023-05-24T02:18:01;4.67;;;1.90;;
11996;SDS011;6058;48.704;9.474;2023-05-24T02:20:29;1.97;;;1.77;;
11996;SDS011;6058;48.704;9.474;2023-05-24T02:23:00;4.03;;;2.47;;
11996;SDS011;6058;48.704;9.474;2023-05-24T02:25:27;3.27;;;2.00;;
11996;SDS011;6058;48.704;9.474;2023-05-24T02:27:55;4.53;;;2.03;;
11996;SDS011;6058;48.704;9.474;2023-05-24T02:30:22;3.57;;;2.07;;
11996;SDS011;6058;48.704;9.474;2023-05-24T02:32:50;6.70;;;2.20;;
11996;SDS011;6058;48.704;9.474;2023-05-24T02:35:17;3.63;;;2.27;;
11996;SDS011;6058;48.704;9.474;2023-05-24T02:37:46;3.37;;;2.17;;
11996;SDS011;6058;48.704;9.474;2023-05-24T02:40:13;2.07;;;1.80;;
11996;SDS011;6058;48.704;9.474;2023-05-24T02:42:40;4.07;;;2.03;;
11996;SDS011;6058;48.704;9.474;2023-05-24T02:45:07;2.83;;;1.83;;
11996;SDS011;6058;48.704;9.474;2023-05-24T02:47:35;2.63;;;2.00;;
11996;SDS011;6058;48.704;9.474;2023-05-24T02:50:02;4.13;;;2.30;;
11996;SDS011;6058;48.704;9.474;2023-05-24T02:52:29;3.67;;;2.40;;
11996;SDS011;6058;48.704;9.474;2023-05-24T02:54:58;3.83;;;2.10;;
11996;SDS011;6058;48.704;9.474;2023-05-24T02:57:25;2.90;;;2.40;;
11996;SDS011;6058;48.704;9.474;2023-05-24T02:59:52;4.37;;;2.53;;
11996;SDS011;6058;48.704;9.474;2023-05-24T03:02:20;5.93;;;2.07;;
11996;SDS011;6058;48.704;9.474;2023-05-24T03:04:47;4.00;;;2.10;;
11996;SDS011;6058;48.704;9.474;2023-05-24T03:07:14;5.97;;;2.50;;
11996;SDS011;6058;48.704;9.474;2023-05-24T03:09:41;3.60;;;2.00;;
11996;SDS011;6058;48.704;9.474;2023-05-24T03:12:10;7.43;;;2.70;;
11996;SDS011;6058;48.704;9.474;2023-05-24T03:14:38;6.77;;;2.37;;
11996;SDS011;6058;48.704;9.474;2023-05-24T03:19:33;4.70;;;2.20;;
11996;SDS011;6058;48.704;9.474;2023-05-24T03:22:01;6.30;;;2.30;;
11996;SDS011;6058;48.704;9.474;2023-05-24T03:24:28;4.83;;;1.97;;
11996;SDS011;6058;48.704;9.474;2023-05-24T03:26:55;5.33;;;1.80;;
11996;SDS011;6058;48.704;9.474;2023-05-24T03:29:24;4.17;;;2.20;;
11996;SDS011;6058;48.704;9.474;2023-05-24T03:31:51;7.00;;;2.30;;
11996;SDS011;6058;48.704;9.474;2023-05-24T03:34:18;4.40;;;2.50;;
11996;SDS011;6058;48.704;9.474;2023-05-24T03:36:45;3.63;;;2.17;;
11996;SDS011;6058;48.704;9.474;2023-05-24T03:39:12;3.70;;;2.30;;
11996;SDS011;6058;48.704;9.474;2023-05-24T03:41:39;4.80;;;2.13;;
11996;SDS011;6058;48.704;9.474;2023-05-24T03:44:06;7.33;;;2.67;;
11996;SDS011;6058;48.704;9.474;2023-05-24T03:46:35;4.10;;;2.50;;
11996;SDS011;6058;48.704;9.474;2023-05-24T03:49:02;6.43;;;2.60;;
11996;SDS011;6058;48.704;9.474;2023-05-24T03:51:30;4.47;;;2.30;;
11996;SDS011;6058;48.704;9.474;2023-05-24T03:53:57;4.63;;;2.27;;
11996;SDS011;6058;48.704;9.474;2023-05-24T03:56:24;7.50;;;2.27;;
11996;SDS011;6058;48.704;9.474;2023-05-24T03:58:52;5.33;;;2.47;;
11996;SDS011;6058;48.704;9.474;2023-05-24T04:01:19;3.93;;;2.20;;
11996;SDS011;6058;48.704;9.474;2023-05-24T04:03:47;5.07;;;2.37;;
11996;SDS011;6058;48.704;9.474;2023-05-24T04:06:15;3.97;;;2.00;;
11996;SDS011;6058;48.704;9.474;2023-05-24T04:08:42;6.37;;;2.77;;
11996;SDS011;6058;48.704;9.474;2023-05-24T04:11:10;4.40;;;2.13;;
11996;SDS011;6058;48.704;9.474;2023-05-24T04:13:37;4.30;;;2.40;;
11996;SDS011;6058;48.704;9.474;2023-05-24T04:18:40;4.57;;;2.10;;
11996;SDS011;6058;48.704;9.474;2023-05-24T04:21:08;4.60;;;2.70;;
11996;SDS011;6058;48.704;9.474;2023-05-24T04:23:35;4.57;;;2.20;;
11996;SDS011;6058;48.704;9.474;2023-05-24T04:26:04;5.20;;;2.27;;
11996;SDS011;6058;48.704;9.474;2023-05-24T04:28:31;4.83;;;2.07;;
11996;SDS011;6058;48.704;9.474;2023-05-24T04:30:59;8.50;;;2.70;;
11996;SDS011;6058;48.704;9.474;2023-05-24T04:33:27;5.77;;;2.53;;
11996;SDS011;6058;48.704;9.474;2023-05-24T04:35:54;3.20;;;2.47;;
11996;SDS011;6058;48.704;9.474;2023-05-24T04:38:26;7.30;;;2.47;;
11996;SDS011;6058;48.704;9.474;2023-05-24T04:40:56;3.67;;;1.87;;
11996;SDS011;6058;48.704;9.474;2023-05-24T04:43:23;3.97;;;2.17;;
11996;SDS011;6058;48.704;9.474;2023-05-24T04:45:51;3.57;;;2.37;;
11996;SDS011;6058;48.704;9.474;2023-05-24T04:48:18;2.77;;;2.33;;
11996;SDS011;6058;48.704;9.474;2023-05-24T04:50:48;4.83;;;2.77;;
11996;SDS011;6058;48.704;9.474;2023-05-24T04:53:15;5.73;;;2.37;;
11996;SDS011;6058;48.704;9.474;2023-05-24T04:55:44;10.43;;;2.90;;
11996;SDS011;6058;48.704;9.474;2023-05-24T04:58:11;8.57;;;2.80;;
11996;SDS011;6058;48.704;9.474;2023-05-24T05:00:38;6.83;;;2.73;;
11996;SDS011;6058;48.704;9.474;2023-05-24T05:03:05;6.57;;;2.80;;
11996;SDS011;6058;48.704;9.474;2023-05-24T05:05:32;6.10;;;2.60;;
11996;SDS011;6058;48.704;9.474;2023-05-24T05:08:00;5.73;;;2.40;;
11996;SDS011;6058;48.704;9.474;2023-05-24T05:10:27;4.00;;;2.40;;
11996;SDS011;6058;48.704;9.474;2023-05-24T05:12:56;7.00;;;2.63;;
11996;SDS011;6058;48.704;9.474;2023-05-24T05:15:23;11.07;;;2.77;;
11996;SDS011;6058;48.704;9.474;2023-05-24T05:17:50;6.90;;;2.53;;
11996;SDS011;6058;48.704;9.474;2023-05-24T05:20:17;5.07;;;2.20;;
11996;SDS011;6058;48.704;9.474;2023-05-24T05:22:45;7.40;;;2.80;;
11996;SDS011;6058;48.704;9.474;2023-05-24T05:25:12;7.07;;;2.50;;
11996;SDS011;6058;48.704;9.474;2023-05-24T05:27:39;5.67;;;2.57;;
11996;SDS011;6058;48.704;9.474;2023-05-24T05:30:08;7.03;;;2.30;;
11996;SDS011;6058;48.704;9.474;2023-05-24T05:32:35;7.20;;;2.63;;
11996;SDS011;6058;48.704;9.474;2023-05-24T05:35:02;8.83;;;2.77;;
11996;SDS011;6058;48.704;9.474;2023-05-24T05:37:30;5.07;;;2.93;;
11996;SDS011;6058;48.704;9.474;2023-05-24T05:39:57;3.60;;;2.20;;
11996;SDS011;6058;48.704;9.474;2023-05-24T05:42:24;5.70;;;2.37;;
11996;SDS011;6058;48.704;9.474;2023-05-24T05:44:51;7.60;;;2.73;;
11996;SDS011;6058;48.704;9.474;2023-05-24T05:47:19;5.30;;;2.30;;
11996;SDS011;6058;48.704;9.474;2023-05-24T05:49:47;4.30;;;2.80;;
11996;SDS011;6058;48.704;9.474;2023-05-24T05:52:14;5.10;;;2.33;;
11996;SDS011;6058;48.704;9.474;2023-05-24T05:54:41;5.03;;;2.53;;
11996;SDS011;6058;48.704;9.474;2023-05-24T05:57:08;6.70;;;2.67;;
11996;SDS011;6058;48.704;9.474;2023-05-24T05:59:35;5.60;;;2.47;;
11996;SDS011;6058;48.704;9.474;2023-05-24T06:02:02;7.77;;;2.90;;
11996;SDS011;6058;48.704;9.474;2023-05-24T06:04:32;11.33;;;3.07;;
11996;SDS011;6058;48.704;9.474;2023-05-24T06:06:59;7.57;;;2.73;;
11996;SDS011;6058;48.704;9.474;2023-05-24T06:09:26;6.30;;;2.73;;
11996;SDS011;6058;48.704;9.474;2023-05-24T06:11:53;7.43;;;2.80;;
11996;SDS011;6058;48.704;9.474;2023-05-24T06:14:20;6.07;;;2.87;;
11996;SDS011;6058;48.704;9.474;2023-05-24T06:16:58;6.17;;;2.77;;
11996;SDS011;6058;48.704;9.474;2023-05-24T06:19:26;5.30;;;2.30;;
11996;SDS011;6058;48.704;9.474;2023-05-24T06:21:54;4.63;;;2.20;;
11996;SDS011;6058;48.704;9.474;2023-05-24T06:24:21;10.77;;;2.90;;
11996;SDS011;6058;48.704;9.474;2023-05-24T06:26:49;6.67;;;2.77;;
11996;SDS011;6058;48.704;9.474;2023-05-24T06:29:16;6.43;;;3.03;;
11996;SDS011;6058;48.704;9.474;2023-05-24T06:31:44;10.43;;;3.07;;
11996;SDS011;6058;48.704;9.474;2023-05-24T06:34:12;7.13;;;2.70;;
11996;SDS011;6058;48.704;9.474;2023-05-24T06:36:41;6.33;;;2.73;;
11996;SDS011;6058;48.704;9.474;2023-05-24T06:39:09;8.60;;;2.80;;
11996;SDS011;6058;48.704;9.474;2023-05-24T06:41:37;7.40;;;2.73;;
11996;SDS011;6058;48.704;9.474;2023-05-24T06:44:04;6.43;;;2.90;;
11996;SDS011;6058;48.704;9.474;2023-05-24T06:46:31;12.30;;;5.33;;
11996;SDS011;6058;48.704;9.474;2023-05-24T06:48:58;4.73;;;2.60;;
11996;SDS011;6058;48.704;9.474;2023-05-24T06:51:25;8.07;;;3.00;;
11996;SDS011;6058;48.704;9.474;2023-05-24T06:53:53;7.87;;;3.27;;
11996;SDS011;6058;48.704;9.474;2023-05-24T06:56:21;7.83;;;3.23;;
11996;SDS011;6058;48.704;9.474;2023-05-24T06:58:49;7.60;;;3.20;;
11996;SDS011;6058;48.704;9.474;2023-05-24T07:01:16;7.43;;;2.50;;
11996;SDS011;6058;48.704;9.474;2023-05-24T07:03:43;4.70;;;2.30;;
11996;SDS011;6058;48.704;9.474;2023-05-24T07:06:10;6.17;;;2.80;;
11996;SDS011;6058;48.704;9.474;2023-05-24T07:08:38;6.53;;;3.13;;
11996;SDS011;6058;48.704;9.474;2023-05-24T07:11:05;6.07;;;2.47;;
11996;SDS011;6058;48.704;9.474;2023-05-24T07:13:34;8.27;;;2.70;;
11996;SDS011;6058;48.704;9.474;2023-05-24T07:16:01;6.87;;;3.03;;
11996;SDS011;6058;48.704;9.474;2023-05-24T07:18:28;8.67;;;2.80;;
11996;SDS011;6058;48.704;9.474;2023-05-24T07:20:56;7.87;;;2.80;;
11996;SDS011;6058;48.704;9.474;2023-05-24T07:23:23;4.10;;;2.53;;
11996;SDS011;6058;48.704;9.474;2023-05-24T07:25:50;6.90;;;2.57;;
11996;SDS011;6058;48.704;9.474;2023-05-24T07:28:18;3.17;;;2.33;;
11996;SDS011;6058;48.704;9.474;2023-05-24T07:30:47;8.07;;;2.77;;
11996;SDS011;6058;48.704;9.474;2023-05-24T07:33:14;4.70;;;2.43;;
11996;SDS011;6058;48.704;9.474;2023-05-24T07:35:41;7.63;;;2.47;;
11996;SDS011;6058;48.704;9.474;2023-05-24T07:38:09;7.13;;;2.60;;
11996;SDS011;6058;48.704;9.474;2023-05-24T07:40:36;5.27;;;2.43;;
11996;SDS011;6058;48.704;9.474;2023-05-24T07:43:03;8.07;;;2.83;;
11996;SDS011;6058;48.704;9.474;2023-05-24T07:45:31;5.00;;;2.03;;
11996;SDS011;6058;48.704;9.474;2023-05-24T07:47:59;5.60;;;2.87;;
11996;SDS011;6058;48.704;9.474;2023-05-24T07:50:26;13.00;;;2.97;;
11996;SDS011;6058;48.704;9.474;2023-05-24T07:52:55;6.40;;;2.80;;
11996;SDS011;6058;48.704;9.474;2023-05-24T07:55:22;5.20;;;2.23;;
11996;SDS011;6058;48.704;9.474;2023-05-24T07:57:49;6.30;;;2.60;;
11996;SDS011;6058;48.704;9.474;2023-05-24T08:00:17;9.40;;;3.20;;
11996;SDS011;6058;48.704;9.474;2023-05-24T08:02:44;7.27;;;2.60;;
11996;SDS011;6058;48.704;9.474;2023-05-24T08:05:13;10.80;;;3.00;;
11996;SDS011;6058;48.704;9.474;2023-05-24T08:07:40;10.47;;;3.30;;
11996;SDS011;6058;48.704;9.474;2023-05-24T08:10:08;5.40;;;2.77;;
11996;SDS011;6058;48.704;9.474;2023-05-24T08:15:07;10.13;;;2.70;;
11996;SDS011;6058;48.704;9.474;2023-05-24T08:17:35;4.57;;;2.30;;
11996;SDS011;6058;48.704;9.474;2023-05-24T08:20:02;6.53;;;2.63;;
11996;SDS011;6058;48.704;9.474;2023-05-24T08:22:34;6.67;;;2.60;;
11996;SDS011;6058;48.704;9.474;2023-05-24T08:25:01;8.07;;;2.57;;
11996;SDS011;6058;48.704;9.474;2023-05-24T08:27:28;5.43;;;2.43;;
11996;SDS011;6058;48.704;9.474;2023-05-24T08:29:55;4.77;;;2.70;;
11996;SDS011;6058;48.704;9.474;2023-05-24T08:32:23;14.10;;;3.33;;
11996;SDS011;6058;48.704;9.474;2023-05-24T08:34:50;4.07;;;2.70;;
11996;SDS011;6058;48.704;9.474;2023-05-24T08:37:17;6.17;;;2.60;;
11996;SDS011;6058;48.704;9.474;2023-05-24T08:39:48;6.53;;;2.70;;
11996;SDS011;6058;48.704;9.474;2023-05-24T08:42:15;6.33;;;2.80;;
11996;SDS011;6058;48.704;9.474;2023-05-24T08:44:45;7.27;;;2.73;;
11996;SDS011;6058;48.704;9.474;2023-05-24T08:47:13;12.27;;;2.90;;
11996;SDS011;6058;48.704;9.474;2023-05-24T08:49:40;6.23;;;2.70;;
11996;SDS011;6058;48.704;9.474;2023-05-24T08:52:08;5.30;;;2.83;;
11996;SDS011;6058;48.704;9.474;2023-05-24T08:54:38;7.23;;;2.70;;
11996;SDS011;6058;48.704;9.474;2023-05-24T08:57:08;8.17;;;3.27;;
11996;SDS011;6058;48.704;9.474;2023-05-24T08:59:36;6.23;;;3.00;;
11996;SDS011;6058;48.704;9.474;2023-05-24T09:02:03;5.80;;;2.60;;
11996;SDS011;6058;48.704;9.474;2023-05-24T09:04:30;7.87;;;2.80;;
11996;SDS011;6058;48.704;9.474;2023-05-24T09:07:00;8.47;;;2.70;;
11996;SDS011;6058;48.704;9.474;2023-05-24T09:09:27;9.77;;;2.83;;
11996;SDS011;6058;48.704;9.474;2023-05-24T09:11:55;10.63;;;2.67;;
11996;SDS011;6058;48.704;9.474;2023-05-24T09:14:24;7.77;;;2.53;;
11996;SDS011;6058;48.704;9.474;2023-05-24T09:16:51;7.60;;;2.67;;
11996;SDS011;6058;48.704;9.474;2023-05-24T09:19:19;5.97;;;2.43;;
11996;SDS011;6058;48.704;9.474;2023-05-24T09:21:47;6.30;;;2.47;;
11996;SDS011;6058;48.704;9.474;2023-05-24T09:24:15;9.97;;;3.10;;
11996;SDS011;6058;48.704;9.474;2023-05-24T09:26:42;5.60;;;2.57;;
11996;SDS011;6058;48.704;9.474;2023-05-24T09:29:09;6.87;;;3.00;;
11996;SDS011;6058;48.704;9.474;2023-05-24T09:31:37;5.03;;;2.67;;
11996;SDS011;6058;48.704;9.474;2023-05-24T09:34:08;9.73;;;2.73;;
11996;SDS011;6058;48.704;9.474;2023-05-24T09:36:39;6.40;;;2.97;;
11996;SDS011;6058;48.704;9.474;2023-05-24T09:39:07;7.60;;;2.30;;
11996;SDS011;6058;48.704;9.474;2023-05-24T09:41:35;5.53;;;2.50;;
11996;SDS011;6058;48.704;9.474;2023-05-24T09:44:03;8.37;;;2.43;;
11996;SDS011;6058;48.704;9.474;2023-05-24T09:46:35;7.70;;;2.67;;
11996;SDS011;6058;48.704;9.474;2023-05-24T09:49:04;5.43;;;2.53;;
11996;SDS011;6058;48.704;9.474;2023-05-24T09:51:33;7.50;;;2.53;;
11996;SDS011;6058;48.704;9.474;2023-05-24T09:54:02;8.30;;;2.73;;
11996;SDS011;6058;48.704;9.474;2023-05-24T09:56:30;9.17;;;2.63;;
11996;SDS011;6058;48.704;9.474;2023-05-24T09:59:03;5.23;;;2.73;;
11996;SDS011;6058;48.704;9.474;2023-05-24T10:01:32;7.20;;;2.77;;
11996;SDS011;6058;48.704;9.474;2023-05-24T10:03:59;9.13;;;2.47;;
11996;SDS011;6058;48.704;9.474;2023-05-24T10:06:31;7.33;;;2.73;;
11996;SDS011;6058;48.704;9.474;2023-05-24T10:09:01;7.87;;;2.50;;
11996;SDS011;6058;48.704;9.474;2023-05-24T10:11:31;6.10;;;2.53;;
11996;SDS011;6058;48.704;9.474;2023-05-24T10:13:58;7.87;;;2.70;;
11996;SDS011;6058;48.704;9.474;2023-05-24T10:16:25;9.03;;;2.83;;
11996;SDS011;6058;48.704;9.474;2023-05-24T10:18:52;6.97;;;2.73;;
11996;SDS011;6058;48.704;9.474;2023-05-24T10:21:20;10.90;;;2.63;;
11996;SDS011;6058;48.704;9.474;2023-05-24T10:23:52;8.60;;;2.67;;
11996;SDS011;6058;48.704;9.474;2023-05-24T10:26:22;9.63;;;2.93;;
11996;SDS011;6058;48.704;9.474;2023-05-24T10:28:50;11.83;;;3.73;;
11996;SDS011;6058;48.704;9.474;2023-05-24T10:31:22;9.40;;;4.23;;
11996;SDS011;6058;48.704;9.474;2023-05-24T10:33:50;6.77;;;2.90;;
11996;SDS011;6058;48.704;9.474;2023-05-24T10:36:18;10.07;;;3.27;;
11996;SDS011;6058;48.704;9.474;2023-05-24T10:38:45;6.73;;;3.03;;
11996;SDS011;6058;48.704;9.474;2023-05-24T10:41:14;9.63;;;3.43;;
11996;SDS011;6058;48.704;9.474;2023-05-24T10:43:41;4.67;;;2.50;;
11996;SDS011;6058;48.704;9.474;2023-05-24T10:46:11;8.23;;;2.60;;
11996;SDS011;6058;48.704;9.474;2023-05-24T10:48:40;6.90;;;3.10;;
11996;SDS011;6058;48.704;9.474;2023-05-24T10:53:54;7.23;;;2.40;;
11996;SDS011;6058;48.704;9.474;2023-05-24T10:56:24;9.67;;;3.13;;
11996;SDS011;6058;48.704;9.474;2023-05-24T10:58:58;10.40;;;3.07;;
11996;SDS011;6058;48.704;9.474;2023-05-24T11:01:26;11.70;;;3.80;;
11996;SDS011;6058;48.704;9.474;2023-05-24T11:04:05;10.10;;;3.00;;
11996;SDS011;6058;48.704;9.474;2023-05-24T11:06:45;14.97;;;3.60;;
11996;SDS011;6058;48.704;9.474;2023-05-24T11:09:13;11.50;;;3.00;;
11996;SDS011;6058;48.704;9.474;2023-05-24T11:11:44;8.60;;;3.50;;
11996;SDS011;6058;48.704;9.474;2023-05-24T11:14:13;12.07;;;3.93;;
11996;SDS011;6058;48.704;9.474;2023-05-24T11:16:43;10.47;;;3.20;;
11996;SDS011;6058;48.704;9.474;2023-05-24T11:19:10;6.13;;;2.50;;
11996;SDS011;6058;48.704;9.474;2023-05-24T11:21:38;11.83;;;3.80;;
11996;SDS011;6058;48.704;9.474;2023-05-24T11:24:06;8.40;;;2.80;;
11996;SDS011;6058;48.704;9.474;2023-05-24T11:26:33;6.37;;;2.80;;
11996;SDS011;6058;48.704;9.474;2023-05-24T11:29:02;9.77;;;2.87;;
11996;SDS011;6058;48.704;9.474;2023-05-24T11:31:30;8.33;;;2.83;;
11996;SDS011;6058;48.704;9.474;2023-05-24T11:33:58;5.13;;;2.50;;
11996;SDS011;6058;48.704;9.474;2023-05-24T11:36:26;5.77;;;2.47;;
11996;SDS011;6058;48.704;9.474;2023-05-24T11:38:54;8.07;;;3.33;;
11996;SDS011;6058;48.704;9.474;2023-05-24T11:41:21;5.77;;;2.80;;
11996;SDS011;6058;48.704;9.474;2023-05-24T11:43:48;8.73;;;2.87;;
11996;SDS011;6058;48.704;9.474;2023-05-24T11:46:16;5.67;;;2.47;;
11996;SDS011;6058;48.704;9.474;2023-05-24T11:48:52;5.20;;;2.90;;
11996;SDS011;6058;48.704;9.474;2023-05-24T11:51:24;7.97;;;3.77;;
11996;SDS011;6058;48.704;9.474;2023-05-24T11:53:51;9.87;;;3.30;;
11996;SDS011;6058;48.704;9.474;2023-05-24T11:56:18;6.03;;;2.80;;
11996;SDS011;6058;48.704;9.474;2023-05-24T11:58:47;9.63;;;3.10;;
11996;SDS011;6058;48.704;9.474;2023-05-24T12:01:23;6.67;;;3.10;;
11996;SDS011;6058;48.704;9.474;2023-05-24T12:03:51;4.33;;;2.63;;
11996;SDS011;6058;48.704;9.474;2023-05-24T12:06:18;7.93;;;2.60;;
11996;SDS011;6058;48.704;9.474;2023-05-24T12:08:46;5.93;;;2.87;;
11996;SDS011;6058;48.704;9.474;2023-05-24T12:11:13;8.37;;;2.57;;
11996;SDS011;6058;48.704;9.474;2023-05-24T12:13:41;11.00;;;2.77;;
11996;SDS011;6058;48.704;9.474;2023-05-24T12:16:09;4.57;;;2.23;;
11996;SDS011;6058;48.704;9.474;2023-05-24T12:18:39;4.73;;;2.67;;
11996;SDS011;6058;48.704;9.474;2023-05-24T12:21:08;7.77;;;2.80;;
11996;SDS011;6058;48.704;9.474;2023-05-24T12:23:36;8.00;;;2.93;;
11996;SDS011;6058;48.704;9.474;2023-05-24T12:26:03;7.77;;;3.07;;
11996;SDS011;6058;48.704;9.474;2023-05-24T12:28:31;7.03;;;3.20;;
11996;SDS011;6058;48.704;9.474;2023-05-24T12:31:00;8.30;;;3.23;;
11996;SDS011;6058;48.704;9.474;2023-05-24T12:33:28;6.83;;;2.27;;
11996;SDS011;6058;48.704;9.474;2023-05-24T12:35:56;10.90;;;2.87;;
11996;SDS011;6058;48.704;9.474;2023-05-24T12:38:24;4.83;;;2.73;;
11996;SDS011;6058;48.704;9.474;2023-05-24T12:40:51;7.50;;;3.23;;
11996;SDS011;6058;48.704;9.474;2023-05-24T12:43:19;5.60;;;2.53;;
11996;SDS011;6058;48.704;9.474;2023-05-24T12:45:46;9.30;;;3.67;;
11996;SDS011;6058;48.704;9.474;2023-05-24T12:48:13;7.20;;;2.70;;
11996;SDS011;6058;48.704;9.474;2023-05-24T12:50:40;6.30;;;2.60;;
11996;SDS011;6058;48.704;9.474;2023-05-24T12:53:09;6.17;;;2.63;;
11996;SDS011;6058;48.704;9.474;2023-05-24T12:55:36;8.20;;;3.00;;
11996;SDS011;6058;48.704;9.474;2023-05-24T12:58:03;4.87;;;2.70;;
11996;SDS011;6058;48.704;9.474;2023-05-24T13:00:33;8.63;;;3.33;;
11996;SDS011;6058;48.704;9.474;2023-05-24T13:03:00;5.60;;;2.50;;
11996;SDS011;6058;48.704;9.474;2023-05-24T13:05:27;11.90;;;3.17;;
11996;SDS011;6058;48.704;9.474;2023-05-24T13:07:55;5.80;;;2.90;;
11996;SDS011;6058;48.704;9.474;2023-05-24T13:10:23;4.63;;;2.10;;
11996;SDS011;6058;48.704;9.474;2023-05-24T13:12:51;6.73;;;2.73;;
11996;SDS011;6058;48.704;9.474;2023-05-24T13:15:20;8.57;;;2.97;;
11996;SDS011;6058;48.704;9.474;2023-05-24T13:17:48;3.90;;;2.30;;
11996;SDS011;6058;48.704;9.474;2023-05-24T13:20:15;4.00;;;2.10;;
11996;SDS011;6058;48.704;9.474;2023-05-24T13:22:46;4.23;;;2.23;;
11996;SDS011;6058;48.704;9.474;2023-05-24T13:25:13;5.80;;;2.90;;
11996;SDS011;6058;48.704;9.474;2023-05-24T13:27:58;5.20;;;2.97;;
11996;SDS011;6058;48.704;9.474;2023-05-24T13:30:25;5.10;;;2.60;;
11996;SDS011;6058;48.704;9.474;2023-05-24T13:32:52;4.80;;;2.57;;
11996;SDS011;6058;48.704;9.474;2023-05-24T13:35:20;4.83;;;3.20;;
11996;SDS011;6058;48.704;9.474;2023-05-24T13:37:47;4.27;;;2.20;;
11996;SDS011;6058;48.704;9.474;2023-05-24T13:40:15;4.53;;;2.30;;
11996;SDS011;6058;48.704;9.474;2023-05-24T13:42:42;6.47;;;2.30;;
11996;SDS011;6058;48.704;9.474;2023-05-24T13:45:10;7.37;;;2.53;;
11996;SDS011;6058;48.704;9.474;2023-05-24T13:47:38;6.40;;;2.67;;
11996;SDS011;6058;48.704;9.474;2023-05-24T13:50:05;6.63;;;2.90;;
11996;SDS011;6058;48.704;9.474;2023-05-24T13:52:32;4.47;;;2.63;;
11996;SDS011;6058;48.704;9.474;2023-05-24T13:55:01;5.67;;;2.40;;
11996;SDS011;6058;48.704;9.474;2023-05-24T13:57:29;5.63;;;2.80;;
11996;SDS011;6058;48.704;9.474;2023-05-24T13:59:57;4.20;;;2.17;;
11996;SDS011;6058;48.704;9.474;2023-05-24T14:02:25;8.03;;;3.13;;
11996;SDS011;6058;48.704;9.474;2023-05-24T14:04:52;4.50;;;2.53;;
11996;SDS011;6058;48.704;9.474;2023-05-24T14:07:20;7.50;;;2.83;;
11996;SDS011;6058;48.704;9.474;2023-05-24T14:09:47;6.47;;;2.40;;
11996;SDS011;6058;48.704;9.474;2023-05-24T14:12:15;5.43;;;2.27;;
11996;SDS011;6058;48.704;9.474;2023-05-24T14:14:42;8.60;;;2.50;;
11996;SDS011;6058;48.704;9.474;2023-05-24T14:17:10;7.53;;;2.63;;
11996;SDS011;6058;48.704;9.474;2023-05-24T14:19:38;2.50;;;1.93;;
11996;SDS011;6058;48.704;9.474;2023-05-24T14:22:05;3.73;;;2.30;;
11996;SDS011;6058;48.704;9.474;2023-05-24T14:24:33;4.63;;;2.00;;
11996;SDS011;6058;48.704;9.474;2023-05-24T14:27:00;3.10;;;2.10;;
11996;SDS011;6058;48.704;9.474;2023-05-24T14:29:28;6.63;;;1.93;;
11996;SDS011;6058;48.704;9.474;2023-05-24T14:31:55;5.70;;;2.33;;
11996;SDS011;6058;48.704;9.474;2023-05-24T14:34:22;3.40;;;2.30;;
11996;SDS011;6058;48.704;9.474;2023-05-24T14:36:51;6.20;;;2.77;;
11996;SDS011;6058;48.704;9.474;2023-05-24T14:39:18;6.57;;;2.60;;
11996;SDS011;6058;48.704;9.474;2023-05-24T14:41:45;3.90;;;2.00;;
11996;SDS011;6058;48.704;9.474;2023-05-24T14:44:12;4.47;;;1.90;;
11996;SDS011;6058;48.704;9.474;2023-05-24T14:46:39;9.90;;;1.97;;
11996;SDS011;6058;48.704;9.474;2023-05-24T14:49:07;5.37;;;2.40;;
11996;SDS011;6058;48.704;9.474;2023-05-24T14:51:34;3.90;;;1.87;;
11996;SDS011;6058;48.704;9.474;2023-05-24T14:54:02;2.23;;;1.67;;
11996;SDS011;6058;48.704;9.474;2023-05-24T14:56:29;4.67;;;1.80;;
11996;SDS011;6058;48.704;9.474;2023-05-24T14:58:56;2.73;;;1.83;;
11996;SDS011;6058;48.704;9.474;2023-05-24T15:01:24;2.17;;;1.50;;
11996;SDS011;6058;48.704;9.474;2023-05-24T15:03:51;3.53;;;1.80;;
11996;SDS011;6058;48.704;9.474;2023-05-24T15:06:18;2.83;;;1.40;;
11996;SDS011;6058;48.704;9.474;2023-05-24T15:08:45;6.50;;;1.60;;
11996;SDS011;6058;48.704;9.474;2023-05-24T15:11:14;2.27;;;1.57;;
11996;SDS011;6058;48.704;9.474;2023-05-24T15:13:43;3.17;;;1.90;;
11996;SDS011;6058;48.704;9.474;2023-05-24T15:16:10;3.43;;;2.13;;
11996;SDS011;6058;48.704;9.474;2023-05-24T15:18:37;2.87;;;1.60;;